地図

経路データ

SID SEASON NUMBER BASIN SUBBASIN NAME ISO_TIME NATURE LAT LON WMO_WIND WMO_PRES WMO_AGENCY TRACK_TYPE DIST2LAND LANDFALL IFLAG USA_AGENCY USA_ATCF_ID USA_LAT USA_LON USA_RECORD USA_STATUS USA_WIND USA_PRES USA_SSHS USA_R34_NE USA_R34_SE USA_R34_SW USA_R34_NW USA_R50_NE USA_R50_SE USA_R50_SW USA_R50_NW USA_R64_NE USA_R64_SE USA_R64_SW USA_R64_NW USA_POCI USA_ROCI USA_RMW USA_EYE TOKYO_LAT TOKYO_LON TOKYO_GRADE TOKYO_WIND TOKYO_PRES TOKYO_R50_DIR TOKYO_R50_LONG TOKYO_R50_SHORT TOKYO_R30_DIR TOKYO_R30_LONG TOKYO_R30_SHORT TOKYO_LAND CMA_LAT CMA_LON CMA_CAT CMA_WIND CMA_PRES HKO_LAT HKO_LON HKO_CAT HKO_WIND HKO_PRES NEWDELHI_LAT NEWDELHI_LON NEWDELHI_GRADE NEWDELHI_WIND NEWDELHI_PRES NEWDELHI_CI NEWDELHI_DP NEWDELHI_POCI REUNION_LAT REUNION_LON REUNION_TYPE REUNION_WIND REUNION_PRES REUNION_TNUM REUNION_CI REUNION_RMW REUNION_R34_NE REUNION_R34_SE REUNION_R34_SW REUNION_R34_NW REUNION_R50_NE REUNION_R50_SE REUNION_R50_SW REUNION_R50_NW REUNION_R64_NE REUNION_R64_SE REUNION_R64_SW REUNION_R64_NW BOM_LAT BOM_LON BOM_TYPE BOM_WIND BOM_PRES BOM_TNUM BOM_CI BOM_RMW BOM_R34_NE BOM_R34_SE BOM_R34_SW BOM_R34_NW BOM_R50_NE BOM_R50_SE BOM_R50_SW BOM_R50_NW BOM_R64_NE BOM_R64_SE BOM_R64_SW BOM_R64_NW BOM_ROCI BOM_POCI BOM_EYE BOM_POS_METHOD BOM_PRES_METHOD NADI_LAT NADI_LON NADI_CAT NADI_WIND NADI_PRES WELLINGTON_LAT WELLINGTON_LON WELLINGTON_WIND WELLINGTON_PRES DS824_LAT DS824_LON DS824_STAGE DS824_WIND DS824_PRES TD9636_LAT TD9636_LON TD9636_STAGE TD9636_WIND TD9636_PRES TD9635_LAT TD9635_LON TD9635_WIND TD9635_PRES TD9635_ROCI NEUMANN_LAT NEUMANN_LON NEUMANN_CLASS NEUMANN_WIND NEUMANN_PRES MLC_LAT MLC_LON MLC_CLASS MLC_WIND MLC_PRES USA_GUST BOM_GUST BOM_GUST_PER REUNION_GUST REUNION_GUST_PER USA_SEAHGT USA_SEARAD_NE USA_SEARAD_SE USA_SEARAD_SW USA_SEARAD_NW STORM_SPEED STORM_DIR
1967241N16324 1967 84 NA NA ARLENE 1967-08-28 18:00:00 TS 15.8000 -35.8000 30 hurdat_atl main 1967 1967 O_____________ hurdat_atl AL111967 15.8000 -35.8000 TD 30 -1 13 298
1967241N16324 1967 84 NA NA ARLENE 1967-08-28 21:00:00 TS 16.0905 -36.3771 main 2032 2032 P_____________ AL111967 16.0905 -36.3771 TD 30 -1 12 300
1967241N16324 1967 84 NA NA ARLENE 1967-08-29 00:00:00 TS 16.4000 -36.9000 30 hurdat_atl main 2076 2065 O_____________ hurdat_atl AL111967 16.4000 -36.9000 TD 30 -1 11 305
1967241N16324 1967 84 NA NA ARLENE 1967-08-29 03:00:00 TS 16.7421 -37.3428 main 2065 2055 P_____________ AL111967 16.7421 -37.3428 TD 30 -1 11 309
1967241N16324 1967 84 NA NA ARLENE 1967-08-29 06:00:00 TS 17.1000 -37.8000 30 hurdat_atl main 2055 2032 O_____________ hurdat_atl AL111967 17.1000 -37.8000 TD 30 -1 12 305
1967241N16324 1967 84 NA NA ARLENE 1967-08-29 09:00:00 TS 17.4501 -38.3851 main 2040 2019 P_____________ AL111967 17.4501 -38.3851 TD 30 -1 13 301
1967241N16324 1967 84 NA NA ARLENE 1967-08-29 12:00:00 TS 17.8000 -39.0000 30 hurdat_atl main 2020 2008 O_____________ hurdat_atl AL111967 17.8000 -39.0000 TD 30 -1 13 303
1967241N16324 1967 84 NA NA ARLENE 1967-08-29 15:00:00 TS 18.1496 -39.5354 main 2009 2001 P_____________ AL111967 18.1496 -39.5354 TD 30 -1 13 304
1967241N16324 1967 84 NA NA ARLENE 1967-08-29 18:00:00 TS 18.5000 -40.1000 30 hurdat_atl main 2003 1990 O_____________ hurdat_atl AL111967 18.5000 -40.1000 TD 30 -1 14 301
1967241N16324 1967 84 NA NA ARLENE 1967-08-29 21:00:00 TS 18.8576 -40.7850 main 1993 1974 P_____________ AL111967 18.8576 -40.7850 TD 30 -1 15 298
1967241N16324 1967 84 NA NA ARLENE 1967-08-30 00:00:00 TS 19.2000 -41.5000 30 hurdat_atl main 1976 1961 O_____________ hurdat_atl AL111967 19.2000 -41.5000 TD 30 -1 14 296
1967241N16324 1967 84 NA NA ARLENE 1967-08-30 03:00:00 TS 19.4690 -42.1064 main 1964 1945 P_____________ AL111967 19.4690 -42.1064 TD 30 -1 14 296
1967241N16324 1967 84 NA NA ARLENE 1967-08-30 06:00:00 TS 19.8000 -42.8000 30 hurdat_atl main 1948 1938 O_____________ hurdat_atl AL111967 19.8000 -42.8000 TD 30 -1 18 298
1967241N16324 1967 84 NA NA ARLENE 1967-08-30 09:00:00 TS 20.3134 -43.7917 main 1940 1938 P_____________ AL111967 20.3134 -43.7917 TD 32 -1 22 300
1967241N16324 1967 84 NA NA ARLENE 1967-08-30 12:00:00 TS 20.9000 -44.8000 35 hurdat_atl main 1948 1948 O_____________ hurdat_atl AL111967 20.9000 -44.8000 TS 35 0 20 305
1967241N16324 1967 84 NA NA ARLENE 1967-08-30 15:00:00 TS 21.4416 -45.5461 main 1966 1966 P_____________ AL111967 21.4416 -45.5461 TS 35 0 17 310
1967241N16324 1967 84 NA NA ARLENE 1967-08-30 18:00:00 TS 22.0000 -46.2000 35 1001 hurdat_atl main 1997 1997 O_____________ hurdat_atl AL111967 22.0000 -46.2000 TS 35 1001 0 17 313
1967241N16324 1967 84 NA NA ARLENE 1967-08-30 21:00:00 TS 22.5997 -46.9004 main 2001 1944 P_____________ AL111967 22.5997 -46.9004 TS 35 0 18 313
1967241N16324 1967 84 NA NA ARLENE 1967-08-31 00:00:00 TS 23.2000 -47.6000 35 hurdat_atl main 1944 1888 O_____________ hurdat_atl AL111967 23.2000 -47.6000 TS 35 0 18 311
1967241N16324 1967 84 NA NA ARLENE 1967-08-31 03:00:00 TS 23.7653 -48.3524 main 1881 1839 P_____________ AL111967 23.7653 -48.3524 TS 37 0 17 311
1967241N16324 1967 84 NA NA ARLENE 1967-08-31 06:00:00 TS 24.3000 -49.0000 40 hurdat_atl main 1839 1821 O_____________ hurdat_atl AL111967 24.3000 -49.0000 TS 40 0 14 319
1967241N16324 1967 84 NA NA ARLENE 1967-08-31 09:00:00 TS 24.8065 -49.3590 main 1819 1810 P_____________ AL111967 24.8065 -49.3590 TS 40 0 12 328
1967241N16324 1967 84 NA NA ARLENE 1967-08-31 12:00:00 TS 25.3000 -49.7000 40 hurdat_atl main 1810 1773 O_____________ hurdat_atl AL111967 25.3000 -49.7000 TS 40 0 13 318
1967241N16324 1967 84 NA NA ARLENE 1967-08-31 15:00:00 TS 25.7857 -50.3422 main 1777 1739 P_____________ AL111967 25.7857 -50.3422 TS 42 0 15 311
1967241N16324 1967 84 NA NA ARLENE 1967-08-31 18:00:00 TS 26.3000 -51.0000 45 1008 hurdat_atl main 1739 1729 O_____________ hurdat_atl AL111967 26.3000 -51.0000 TS 45 1008 0 15 318
1967241N16324 1967 84 NA NA ARLENE 1967-08-31 21:00:00 TS 26.8844 -51.4309 main 1736 1728 P_____________ AL111967 26.8844 -51.4309 TS 45 0 14 329
1967241N16324 1967 84 NA NA ARLENE 1967-09-01 00:00:00 TS 27.5000 -51.8000 45 hurdat_atl main 1738 1734 O_____________ hurdat_atl AL111967 27.5000 -51.8000 TS 45 0 14 330
1967241N16324 1967 84 NA NA ARLENE 1967-09-01 03:00:00 TS 28.0998 -52.2281 main 1743 1735 P_____________ AL111967 28.0998 -52.2281 TS 45 0 14 326
1967241N16324 1967 84 NA NA ARLENE 1967-09-01 06:00:00 TS 28.7000 -52.7000 45 hurdat_atl main 1744 1743 O_____________ hurdat_atl AL111967 28.7000 -52.7000 TS 45 0 15 325
1967241N16324 1967 84 NA NA ARLENE 1967-09-01 09:00:00 TS 29.3222 -53.2202 main 1750 1750 P_____________ AL111967 29.3222 -53.2202 TS 47 0 15 321
1967241N16324 1967 84 NA NA ARLENE 1967-09-01 12:00:00 TS 29.9000 -53.8000 50 1009 hurdat_atl main 1753 1743 O_____________ hurdat_atl AL111967 29.9000 -53.8000 TS 50 1009 0 15 314
1967241N16324 1967 84 NA NA ARLENE 1967-09-01 15:00:00 TS 30.3575 -54.4435 main 1746 1674 P_____________ AL111967 30.3575 -54.4435 TS 50 1008 0 14 309
1967241N16324 1967 84 NA NA ARLENE 1967-09-01 18:00:00 TS 30.8000 -55.1000 50 hurdat_atl main 1674 1597 I_____________ hurdat_atl AL111967 30.8000 -55.1000 TS 50 1008 0 15 310
1967241N16324 1967 84 NA NA ARLENE 1967-09-01 21:00:00 TS 31.3202 -55.7597 main 1593 1511 P_____________ AL111967 31.3202 -55.7597 TS 52 1007 0 15 317
1967241N16324 1967 84 NA NA ARLENE 1967-09-02 00:00:00 TS 31.9000 -56.3000 55 1007 hurdat_atl main 1511 1439 O_____________ hurdat_atl AL111967 31.9000 -56.3000 TS 55 1007 0 14 329
1967241N16324 1967 84 NA NA ARLENE 1967-09-02 03:00:00 TS 32.5346 -56.6330 main 1439 1362 P_____________ AL111967 32.5346 -56.6330 TS 55 1005 0 14 342
1967241N16324 1967 84 NA NA ARLENE 1967-09-02 06:00:00 TS 33.2000 -56.8000 55 hurdat_atl main 1362 1300 I_____________ hurdat_atl AL111967 33.2000 -56.8000 TS 55 1003 0 13 350
1967241N16324 1967 84 NA NA ARLENE 1967-09-02 09:00:00 TS 33.8274 -56.9027 main 1300 1234 P_____________ AL111967 33.8274 -56.9027 TS 57 1001 0 13 356
1967241N16324 1967 84 NA NA ARLENE 1967-09-02 12:00:00 TS 34.5000 -56.9000 60 999 hurdat_atl main 1234 1167 O_____________ hurdat_atl AL111967 34.5000 -56.9000 TS 60 999 0 15 1
1967241N16324 1967 84 NA NA ARLENE 1967-09-02 15:00:00 TS 35.2847 -56.8739 main 1157 1077 P_____________ AL111967 35.2847 -56.8739 TS 60 997 0 16 6
1967241N16324 1967 84 NA NA ARLENE 1967-09-02 18:00:00 TS 36.1000 -56.7000 60 hurdat_atl main 1077 1013 I_____________ hurdat_atl AL111967 36.1000 -56.7000 TS 60 996 0 16 16
1967241N16324 1967 84 NA NA ARLENE 1967-09-02 21:00:00 TS 36.8503 -56.3029 main 1006 952 P_____________ AL111967 36.8503 -56.3029 TS 62 995 0 17 26
1967241N16324 1967 84 NA NA ARLENE 1967-09-03 00:00:00 TS 37.6000 -55.8000 65 994 hurdat_atl main 952 890 O_____________ hurdat_atl AL111967 37.6000 -55.8000 HU 65 994 1 17 26
1967241N16324 1967 84 NA NA ARLENE 1967-09-03 03:00:00 TS 38.3996 -55.3638 main 890 829 P_____________ AL111967 38.3996 -55.3638 HU 67 995 1 18 24
1967241N16324 1967 84 NA NA ARLENE 1967-09-03 06:00:00 TS 39.2000 -54.9000 70 hurdat_atl main 829 758 I_____________ hurdat_atl AL111967 39.2000 -54.9000 HU 70 996 1 17 27
1967241N16324 1967 84 NA NA ARLENE 1967-09-03 09:00:00 TS 39.8742 -54.4118 main 747 667 P_____________ AL111967 39.8742 -54.4118 HU 70 997 1 17 29
1967241N16324 1967 84 NA NA ARLENE 1967-09-03 12:00:00 TS 40.7000 -53.8000 70 998 hurdat_atl main 656 522 O_____________ hurdat_atl AL111967 40.7000 -53.8000 HU 70 998 1 24 28
1967241N16324 1967 84 NA NA ARLENE 1967-09-03 15:00:00 TS 42.0168 -52.8869 main 511 387 P_____________ AL111967 42.0168 -52.8869 HU 72 994 1 29 27
1967241N16324 1967 84 NA NA ARLENE 1967-09-03 18:00:00 TS 43.3000 -52.0000 75 hurdat_atl main 378 311 I_____________ hurdat_atl AL111967 43.3000 -52.0000 HU 75 990 1 22 24
1967241N16324 1967 84 NA NA ARLENE 1967-09-03 21:00:00 TS 44.0511 -51.6492 main 304 270 P_____________ AL111967 44.0511 -51.6492 HU 67 986 1 14 24
1967241N16324 1967 84 NA NA ARLENE 1967-09-04 00:00:00 TS 44.6000 -51.2000 60 982 hurdat_atl main 270 264 O_____________ hurdat_atl AL111967 44.6000 -51.2000 TS 60 982 0 16 44
1967241N16324 1967 84 NA NA ARLENE 1967-09-04 03:00:00 TS 45.2395 -50.0382 main 291 284 P_____________ AL111967 45.2395 -50.0382 TS 60 0 22 57
1967241N16324 1967 84 NA NA ARLENE 1967-09-04 06:00:00 TS 45.8000 -48.6000 60 hurdat_atl main 354 354 O_____________ hurdat_atl AL111967 45.8000 -48.6000 TS 60 0 23 63
1967241N16324 1967 84 NA NA ARLENE 1967-09-04 09:00:00 TS 46.2849 -47.1288 main 436 436 P_____________ AL111967 46.2849 -47.1288 TS 60 0 20 66
1967241N16324 1967 84 NA NA ARLENE 1967-09-04 12:00:00 ET 46.6000 -46.0000 60 hurdat_atl main 507 507 O_____________ hurdat_atl AL111967 46.6000 -46.0000 EX 60 -4 11 68
1967241N16324 1967 84 NA NA ARLENE 1967-09-04 15:00:00 ET 46.7081 -45.6184 main 534 527 P_____________ AL111967 46.7081 -45.6184 EX 60 -4 2 64
1967241N16324 1967 84 NA NA ARLENE 1967-09-04 18:00:00 ET 46.7000 -45.7000 60 hurdat_atl main 527 O_____________ hurdat_atl AL111967 46.7000 -45.7000 EX 60 -4 1 262

IBTrACS Databaseについて

本データベースは、米国NOAAが公開する1842年以降の世界の熱帯低気圧のベストトラックデータアーカイブInternational Best Track Archive for Climate Stewardship (IBTrACS)を、ウェブで閲覧しやすい形式に変換したものです。

最終更新日:2021-10-19